createdAt,value
2019-05-20T00:00:11.568Z,6.77
2019-05-20T00:02:40.157Z,7.17
2019-05-20T00:05:09.184Z,7.47
2019-05-20T00:07:37.766Z,7.23
2019-05-20T00:10:07.840Z,6.63
2019-05-20T00:12:36.529Z,6.13
2019-05-20T00:15:06.853Z,6.03
2019-05-20T00:17:35.439Z,5.73
2019-05-20T00:20:06.994Z,5.53
2019-05-20T00:22:35.721Z,5.27
2019-05-20T00:25:07.762Z,5.87
2019-05-20T00:27:36.314Z,4.60
2019-05-20T00:30:07.860Z,5.03
2019-05-20T00:32:41.328Z,4.93
2019-05-20T00:35:08.523Z,5.70
2019-05-20T00:37:37.154Z,5.53
2019-05-20T00:40:07.716Z,5.40
2019-05-20T00:42:36.271Z,6.23
2019-05-20T00:45:05.699Z,5.83
2019-05-20T00:47:34.388Z,5.77
2019-05-20T00:50:03.537Z,6.10
2019-05-20T00:52:32.136Z,5.80
2019-05-20T00:55:00.756Z,5.60
2019-05-20T00:57:29.401Z,6.17
2019-05-20T00:59:58.045Z,6.20
2019-05-20T01:02:26.638Z,6.13
2019-05-20T01:04:55.360Z,6.30
2019-05-20T01:07:23.948Z,6.10
2019-05-20T01:09:52.489Z,6.17
2019-05-20T01:12:21.122Z,6.30
2019-05-20T01:14:49.712Z,7.10
2019-05-20T01:17:18.472Z,6.17
2019-05-20T01:19:47.309Z,6.30
2019-05-20T01:22:20.737Z,6.20
2019-05-20T01:24:49.265Z,6.40
2019-05-20T01:27:17.930Z,5.97
2019-05-20T01:29:46.721Z,6.47
2019-05-20T01:32:15.288Z,7.10
2019-05-20T01:34:43.863Z,6.93
2019-05-20T01:37:12.420Z,6.57
2019-05-20T01:39:41.005Z,6.83
2019-05-20T01:42:09.761Z,6.60
2019-05-20T01:44:38.344Z,7.10
2019-05-20T01:47:07.003Z,6.70
2019-05-20T01:49:37.128Z,7.13
2019-05-20T01:52:05.702Z,6.73
2019-05-20T01:54:34.307Z,7.13
2019-05-20T01:57:03.051Z,6.37
2019-05-20T01:59:32.701Z,7.17
2019-05-20T02:02:01.341Z,6.30
2019-05-20T02:04:29.881Z,7.00
2019-05-20T02:06:58.528Z,6.50
2019-05-20T02:09:27.153Z,6.30
2019-05-20T02:11:55.933Z,5.73
2019-05-20T02:14:38.170Z,5.97
2019-05-20T02:17:06.797Z,5.60
2019-05-20T02:19:35.581Z,5.70
2019-05-20T02:22:04.439Z,5.03
2019-05-20T02:24:33.293Z,5.17
2019-05-20T02:27:21.243Z,4.77
2019-05-20T02:29:50.024Z,4.63
2019-05-20T02:32:18.880Z,4.77
2019-05-20T02:34:47.533Z,4.90
2019-05-20T02:37:16.120Z,4.80
2019-05-20T02:39:44.748Z,4.93
2019-05-20T02:42:13.456Z,4.70
2019-05-20T02:44:42.141Z,4.63
2019-05-20T02:47:10.754Z,4.97
2019-05-20T02:49:39.339Z,5.53
2019-05-20T02:52:08.025Z,5.60
2019-05-20T02:54:37.892Z,5.13
2019-05-20T02:57:06.525Z,5.53
2019-05-20T02:59:35.084Z,5.20
2019-05-20T03:02:03.732Z,5.20
2019-05-20T03:04:32.385Z,5.13
2019-05-20T03:07:01.089Z,4.50
2019-05-20T03:09:29.756Z,5.10
2019-05-20T03:11:58.376Z,5.00
2019-05-20T03:14:26.977Z,4.90
2019-05-20T03:17:15.016Z,5.70
2019-05-20T03:19:43.651Z,5.00
2019-05-20T03:22:12.263Z,5.37
2019-05-20T03:24:40.995Z,5.70
2019-05-20T03:27:09.647Z,5.33
2019-05-20T03:29:38.431Z,5.40
2019-05-20T03:32:07.280Z,6.43
2019-05-20T03:34:46.731Z,6.90
2019-05-20T03:37:06.395Z,6.70
2019-05-20T03:39:34.978Z,7.07
2019-05-20T03:42:03.603Z,6.13
2019-05-20T03:44:32.235Z,6.37
2019-05-20T03:47:00.857Z,6.47
2019-05-20T03:49:29.493Z,6.60
2019-05-20T03:51:58.226Z,6.80
2019-05-20T03:54:26.891Z,6.47
2019-05-20T03:56:55.557Z,5.93
2019-05-20T03:59:24.191Z,7.30
2019-05-20T04:01:52.821Z,6.47
2019-05-20T04:04:24.840Z,6.93
2019-05-20T04:06:51.572Z,6.40
2019-05-20T04:09:20.186Z,6.30
2019-05-20T04:11:48.947Z,6.50
2019-05-20T04:14:17.655Z,6.20
2019-05-20T04:16:46.286Z,6.43
2019-05-20T04:19:14.915Z,5.70
2019-05-20T04:21:43.574Z,5.20
2019-05-20T04:24:12.440Z,5.20
2019-05-20T04:26:41.057Z,5.00
2019-05-20T04:29:09.652Z,4.30
2019-05-20T04:31:38.575Z,4.87
2019-05-20T04:34:07.421Z,3.80
2019-05-20T04:36:36.126Z,3.73
2019-05-20T04:39:06.733Z,4.10
2019-05-20T04:41:36.061Z,3.80
2019-05-20T04:44:24.202Z,3.53
2019-05-20T04:46:52.779Z,3.13
2019-05-20T04:49:21.391Z,4.20
2019-05-20T04:51:51.494Z,2.80
2019-05-20T04:54:20.176Z,3.27
2019-05-20T04:56:48.778Z,3.17
2019-05-20T04:59:17.381Z,3.60
2019-05-20T05:01:46.027Z,3.20
2019-05-20T05:04:14.646Z,3.03
2019-05-20T05:06:43.354Z,3.20
2019-05-20T05:09:15.464Z,2.80
2019-05-20T05:11:43.855Z,3.30
2019-05-20T05:14:12.763Z,3.03
2019-05-20T05:16:41.394Z,3.20
2019-05-20T05:19:10.155Z,3.27
2019-05-20T05:21:38.985Z,3.13
2019-05-20T05:24:07.827Z,3.00
2019-05-20T05:26:36.772Z,3.13
2019-05-20T05:29:05.511Z,3.40
2019-05-20T05:31:34.450Z,2.93
2019-05-20T05:34:03.117Z,3.90
2019-05-20T05:36:31.771Z,3.50
2019-05-20T05:39:01.871Z,3.80
2019-05-20T05:41:30.475Z,3.37
2019-05-20T05:43:59.203Z,3.73
2019-05-20T05:46:27.803Z,4.43
2019-05-20T05:48:56.569Z,4.03
2019-05-20T05:51:25.390Z,4.03
2019-05-20T05:53:54.003Z,4.10
2019-05-20T05:56:22.943Z,4.50
2019-05-20T05:58:51.768Z,4.53
2019-05-20T06:01:20.563Z,3.93
2019-05-20T06:03:49.169Z,4.37
2019-05-20T06:06:19.496Z,4.30
2019-05-20T06:08:48.179Z,4.60
2019-05-20T06:11:16.904Z,4.47
2019-05-20T06:13:45.523Z,5.80
2019-05-20T06:16:14.219Z,5.73
2019-05-20T06:18:42.783Z,5.93
2019-05-20T06:21:11.437Z,6.57
2019-05-20T06:23:40.158Z,7.33
2019-05-20T06:26:28.216Z,8.63
2019-05-20T06:29:02.734Z,8.37
2019-05-20T06:31:29.572Z,8.63
2019-05-20T06:33:59.785Z,10.50
2019-05-20T06:36:28.780Z,9.77
2019-05-20T06:39:13.597Z,9.80
2019-05-20T06:41:43.825Z,10.27
2019-05-20T06:44:12.536Z,10.73
2019-05-20T06:46:41.186Z,11.00
2019-05-20T06:49:09.942Z,12.40
2019-05-20T06:51:38.593Z,11.43
2019-05-20T06:54:08.289Z,12.97
2019-05-20T06:56:37.260Z,14.20
2019-05-20T06:59:06.434Z,14.30
2019-05-20T07:01:35.319Z,15.67
2019-05-20T07:04:05.479Z,14.50
2019-05-20T07:06:53.607Z,14.87
2019-05-20T07:09:22.509Z,17.53
2019-05-20T07:11:53.109Z,17.57
2019-05-20T07:14:21.645Z,17.10
2019-05-20T07:16:50.389Z,16.60
2019-05-20T07:19:20.373Z,16.93
2019-05-20T07:21:49.818Z,17.70
2019-05-20T07:24:18.692Z,17.63
2019-05-20T07:26:47.360Z,17.40
2019-05-20T07:29:16.185Z,18.53
2019-05-20T07:31:44.809Z,18.57
2019-05-20T07:34:15.631Z,19.27
2019-05-20T07:36:44.308Z,19.50
2019-05-20T07:39:13.118Z,20.07
2019-05-20T07:41:43.299Z,19.70
2019-05-20T07:44:12.244Z,19.50
2019-05-20T07:46:41.051Z,19.13
2019-05-20T07:49:11.001Z,19.60
2019-05-20T07:51:41.992Z,18.97
2019-05-20T07:54:11.813Z,20.87
2019-05-20T07:56:43.535Z,19.10
2019-05-20T07:59:15.620Z,19.80
2019-05-20T08:01:44.333Z,18.77
2019-05-20T08:04:12.964Z,18.83
2019-05-20T08:06:41.830Z,19.03
2019-05-20T08:09:10.602Z,17.77
2019-05-20T08:11:39.482Z,17.60
2019-05-20T08:14:08.482Z,18.67
2019-05-20T08:16:37.394Z,17.47
2019-05-20T08:19:06.042Z,16.60
2019-05-20T08:21:35.518Z,16.43
2019-05-20T08:24:04.551Z,15.67
2019-05-20T08:26:33.461Z,15.93
2019-05-20T08:29:02.061Z,16.10
2019-05-20T08:31:30.881Z,16.30
2019-05-20T08:34:00.835Z,15.33
2019-05-20T08:36:29.397Z,16.50
2019-05-20T08:38:58.064Z,15.83
2019-05-20T08:41:26.854Z,15.07
2019-05-20T08:43:55.820Z,15.67
2019-05-20T08:46:25.630Z,14.00
2019-05-20T08:48:54.498Z,14.83
2019-05-20T08:51:23.955Z,16.63
2019-05-20T08:53:52.726Z,16.13
2019-05-20T08:56:21.734Z,15.77
2019-05-20T08:58:50.529Z,16.33
2019-05-20T09:01:19.140Z,16.63
2019-05-20T09:03:47.882Z,16.67
2019-05-20T09:06:20.641Z,16.47
2019-05-20T09:08:47.307Z,17.50
2019-05-20T09:11:15.992Z,16.90
2019-05-20T09:13:44.725Z,16.50
2019-05-20T09:16:13.398Z,17.10
2019-05-20T09:18:42.227Z,17.57
2019-05-20T09:21:12.665Z,19.10
2019-05-20T09:23:41.590Z,20.77
2019-05-20T09:26:12.409Z,21.03
2019-05-20T09:28:43.913Z,20.50
2019-05-20T09:31:12.659Z,20.13
2019-05-20T09:33:42.887Z,19.60
2019-05-20T09:36:11.834Z,21.17
2019-05-20T09:38:40.571Z,19.90
2019-05-20T09:41:09.552Z,20.30
2019-05-20T09:43:41.344Z,20.97
2019-05-20T09:46:10.097Z,21.63
2019-05-20T09:48:38.724Z,21.40
2019-05-20T09:51:07.351Z,22.43
2019-05-20T09:53:35.964Z,21.80
2019-05-20T09:56:04.717Z,22.07
2019-05-20T09:58:34.632Z,20.23
2019-05-20T10:01:04.051Z,20.60
2019-05-20T10:03:32.783Z,18.07
2019-05-20T10:06:01.672Z,17.70
2019-05-20T10:08:38.866Z,19.37
2019-05-20T10:11:01.479Z,19.30
2019-05-20T10:13:30.618Z,18.00
2019-05-20T10:15:59.424Z,17.77
2019-05-20T10:18:37.495Z,18.60
2019-05-20T10:21:05.883Z,18.40
2019-05-20T10:23:30.335Z,17.10
2019-05-20T10:25:59.196Z,18.60
2019-05-20T10:28:30.268Z,18.50
2019-05-20T10:30:59.113Z,18.20
2019-05-20T10:33:27.704Z,16.37
2019-05-20T10:35:56.399Z,17.80
2019-05-20T10:38:25.038Z,18.07
2019-05-20T10:40:54.700Z,17.87
2019-05-20T10:43:23.884Z,18.17
2019-05-20T10:45:52.613Z,18.37
2019-05-20T10:48:21.368Z,18.83
2019-05-20T10:50:50.121Z,18.03
2019-05-20T10:53:18.881Z,17.53
2019-05-20T10:55:47.494Z,19.10
2019-05-20T10:58:16.193Z,19.23
2019-05-20T11:01:01.145Z,17.93
2019-05-20T11:03:15.228Z,19.27
2019-05-20T11:05:44.451Z,19.77
2019-05-20T11:08:13.118Z,20.73
2019-05-20T11:10:41.786Z,20.47
2019-05-20T11:13:10.377Z,19.53
2019-05-20T11:15:39.069Z,20.40
2019-05-20T11:18:09.184Z,20.27
2019-05-20T11:20:38.247Z,19.87
2019-05-20T11:23:06.815Z,20.43
2019-05-20T11:25:35.553Z,20.80
2019-05-20T11:28:04.287Z,21.00
2019-05-20T11:30:32.898Z,20.67
2019-05-20T11:33:07.503Z,20.80
2019-05-20T11:35:36.217Z,20.10
2019-05-20T11:38:04.954Z,21.67
2019-05-20T11:40:34.202Z,21.67
2019-05-20T11:43:04.144Z,20.67
2019-05-20T11:45:32.969Z,20.70
2019-05-20T11:48:01.656Z,19.30
2019-05-20T11:50:30.905Z,19.63
2019-05-20T11:52:59.869Z,19.77
2019-05-20T11:55:28.440Z,20.63
2019-05-20T11:58:12.815Z,19.57
2019-05-20T12:00:28.050Z,18.53
2019-05-20T12:02:56.865Z,19.10
2019-05-20T12:05:26.267Z,19.53
2019-05-20T12:07:54.815Z,20.13
2019-05-20T12:10:24.343Z,20.13
2019-05-20T12:12:52.943Z,19.77
2019-05-20T12:15:21.627Z,20.07
2019-05-20T12:17:50.264Z,19.67
2019-05-20T12:20:19.501Z,21.00
2019-05-20T12:22:48.140Z,21.03
2019-05-20T12:25:17.056Z,20.27
2019-05-20T12:27:45.677Z,21.10
2019-05-20T12:30:15.726Z,20.30
2019-05-20T12:32:45.773Z,22.00
2019-05-20T12:35:14.723Z,20.90
2019-05-20T12:37:45.877Z,22.70
2019-05-20T12:40:15.238Z,23.93
2019-05-20T12:42:43.967Z,25.67
2019-05-20T12:45:13.273Z,25.87
2019-05-20T12:47:42.003Z,26.23
2019-05-20T12:50:11.543Z,27.13
2019-05-20T12:52:40.179Z,28.60
2019-05-20T12:55:10.344Z,26.77
2019-05-20T12:57:39.158Z,28.90
2019-05-20T13:00:11.318Z,29.53
2019-05-20T13:02:42.036Z,30.23
2019-05-20T13:05:11.626Z,30.33
2019-05-20T13:07:40.429Z,29.60
2019-05-20T13:10:27.004Z,30.20
2019-05-20T13:12:40.607Z,29.30
2019-05-20T13:15:11.254Z,32.33
2019-05-20T13:17:44.284Z,31.20
2019-05-20T13:20:10.988Z,30.63
2019-05-20T13:22:39.880Z,31.07
2019-05-20T13:25:09.595Z,30.27
2019-05-20T13:27:38.331Z,29.67
2019-05-20T13:30:10.275Z,28.87
2019-05-20T13:32:38.967Z,29.17
2019-05-20T13:35:08.635Z,27.87
2019-05-20T13:37:37.253Z,28.97
2019-05-20T13:40:10.410Z,29.13
2019-05-20T13:42:39.170Z,27.80
2019-05-20T13:45:08.610Z,28.53
2019-05-20T13:47:37.464Z,28.13
2019-05-20T13:50:09.939Z,28.30
2019-05-20T13:52:38.693Z,28.60
2019-05-20T13:55:07.797Z,29.30
2019-05-20T13:57:36.948Z,27.77
2019-05-20T14:00:13.151Z,28.37
2019-05-20T14:02:41.911Z,28.67
2019-05-20T14:05:11.275Z,29.20
2019-05-20T14:07:40.374Z,27.83
2019-05-20T14:10:10.075Z,27.17
2019-05-20T14:12:38.704Z,27.87
2019-05-20T14:15:08.440Z,28.43
2019-05-20T14:17:37.708Z,29.60
2019-05-20T14:20:08.180Z,27.50
2019-05-20T14:22:37.026Z,27.23
2019-05-20T14:25:28.296Z,28.47
2019-05-20T14:27:55.823Z,28.87
2019-05-20T14:30:24.437Z,28.43
2019-05-20T14:32:52.995Z,28.60
2019-05-20T14:35:21.672Z,27.40
2019-05-20T14:37:52.130Z,29.33
2019-05-20T14:40:21.155Z,30.60
2019-05-20T14:42:49.903Z,28.93
2019-05-20T14:45:18.602Z,28.77
2019-05-20T14:47:47.187Z,29.67
2019-05-20T14:50:16.966Z,29.77
2019-05-20T14:52:45.664Z,30.63
2019-05-20T14:55:14.478Z,28.27
2019-05-20T14:57:43.852Z,31.00
2019-05-20T15:00:13.450Z,29.63
2019-05-20T15:02:42.669Z,28.33
2019-05-20T15:05:14.189Z,27.87
2019-05-20T15:07:42.855Z,29.20
2019-05-20T15:10:12.449Z,28.93
2019-05-20T15:12:41.238Z,28.40
2019-05-20T15:15:10.337Z,27.40
2019-05-20T15:17:39.113Z,28.60
2019-05-20T15:20:08.699Z,24.97
2019-05-20T15:22:39.494Z,26.50
2019-05-20T15:25:10.630Z,25.43
2019-05-20T15:27:39.485Z,26.70
2019-05-20T15:30:12.347Z,27.23
2019-05-20T15:32:41.019Z,27.00
2019-05-20T15:35:11.186Z,27.77
2019-05-20T15:37:39.879Z,29.37
2019-05-20T15:40:08.991Z,28.43
2019-05-20T15:42:37.700Z,28.33
2019-05-20T15:45:10.228Z,27.80
2019-05-20T15:47:39.024Z,28.77
2019-05-20T15:50:10.170Z,29.17
2019-05-20T15:52:38.559Z,28.30
2019-05-20T15:55:07.951Z,27.93
2019-05-20T15:57:36.516Z,29.27
2019-05-20T16:00:08.518Z,28.67
2019-05-20T16:02:37.741Z,28.83
2019-05-20T16:05:09.301Z,27.10
2019-05-20T16:07:37.994Z,27.77
2019-05-20T16:10:07.220Z,29.10
2019-05-20T16:12:36.031Z,29.90
2019-05-20T16:15:08.130Z,27.60
2019-05-20T16:17:48.323Z,27.13
2019-05-20T16:20:16.175Z,27.00
2019-05-20T16:22:44.941Z,26.83
2019-05-20T16:25:14.824Z,26.93
2019-05-20T16:27:43.467Z,25.10
2019-05-20T16:30:14.027Z,24.87
2019-05-20T16:32:43.415Z,25.37
2019-05-20T16:35:12.676Z,25.73
2019-05-20T16:38:00.718Z,23.97
2019-05-20T16:40:29.609Z,25.03
2019-05-20T16:42:59.867Z,23.43
2019-05-20T16:45:28.659Z,22.90
2019-05-20T16:47:57.924Z,24.07
2019-05-20T16:50:26.841Z,24.17
2019-05-20T16:52:55.625Z,24.70
2019-05-20T16:55:24.262Z,25.37
2019-05-20T16:57:52.943Z,26.47
2019-05-20T17:00:31.514Z,23.70
2019-05-20T17:02:52.816Z,24.90
2019-05-20T17:05:21.410Z,20.87
2019-05-20T17:07:52.898Z,21.47
2019-05-20T17:10:21.903Z,22.90
2019-05-20T17:12:51.273Z,25.17
2019-05-20T17:15:20.078Z,24.03
2019-05-20T17:17:48.805Z,23.60
2019-05-20T17:20:18.270Z,24.70
2019-05-20T17:22:46.999Z,22.67
2019-05-20T17:25:15.806Z,23.73
2019-05-20T17:27:44.500Z,23.97
2019-05-20T17:30:14.213Z,24.37
2019-05-20T17:32:42.894Z,23.87
2019-05-20T17:35:12.087Z,26.07
2019-05-20T17:37:40.647Z,24.93
2019-05-20T17:40:11.202Z,25.20
2019-05-20T17:42:39.939Z,25.10
2019-05-20T17:45:09.788Z,24.67
2019-05-20T17:47:38.394Z,25.10
2019-05-20T17:50:09.363Z,23.77
2019-05-20T17:52:37.967Z,23.57
2019-05-20T17:55:07.883Z,23.13
2019-05-20T17:57:36.755Z,23.03
2019-05-20T18:00:12.170Z,24.67
2019-05-20T18:02:41.205Z,24.87
2019-05-20T18:05:10.137Z,25.50
2019-05-20T18:07:38.803Z,25.07
2019-05-20T18:10:08.718Z,24.57
2019-05-20T18:12:38.558Z,26.73
2019-05-20T18:15:08.241Z,28.63
2019-05-20T18:17:36.906Z,27.83
2019-05-20T18:20:07.226Z,26.83
2019-05-20T18:22:36.111Z,27.30
2019-05-20T18:25:06.656Z,25.93
2019-05-20T18:27:35.325Z,25.27
2019-05-20T18:30:05.851Z,27.87
2019-05-20T18:32:34.781Z,27.63
2019-05-20T18:35:04.310Z,26.80
2019-05-20T18:37:33.122Z,28.00
2019-05-20T18:40:13.306Z,28.70
2019-05-20T18:42:32.051Z,29.03
2019-05-20T18:45:08.330Z,27.23
2019-05-20T18:47:37.086Z,27.33
2019-05-20T18:50:07.927Z,29.17
2019-05-20T18:52:36.996Z,28.23
2019-05-20T18:55:07.451Z,27.97
2019-05-20T18:57:39.042Z,26.87
2019-05-20T19:00:10.044Z,29.20
2019-05-20T19:02:38.680Z,28.07
2019-05-20T19:05:08.036Z,28.87
2019-05-20T19:07:36.767Z,28.00
2019-05-20T19:10:06.705Z,29.23
2019-05-20T19:12:37.186Z,29.10
2019-05-20T19:15:07.471Z,29.20
2019-05-20T19:17:36.215Z,28.93
2019-05-20T19:20:06.611Z,28.83
2019-05-20T19:22:37.076Z,29.13
2019-05-20T19:25:07.003Z,28.13
2019-05-20T19:27:36.193Z,28.60
2019-05-20T19:30:05.927Z,30.33
2019-05-20T19:32:34.639Z,31.77
2019-05-20T19:35:05.212Z,31.43
2019-05-20T19:37:33.955Z,32.03
2019-05-20T19:40:02.874Z,35.00
2019-05-20T19:42:31.891Z,32.83
2019-05-20T19:45:00.453Z,32.70
2019-05-20T19:47:30.901Z,32.67
2019-05-20T19:49:59.750Z,33.23
2019-05-20T19:52:28.510Z,34.27
2019-05-20T19:54:57.137Z,34.73
2019-05-20T19:57:25.834Z,34.83
2019-05-20T19:59:54.434Z,35.13
2019-05-20T20:02:23.212Z,34.50
2019-05-20T20:04:52.019Z,34.40
2019-05-20T20:07:20.672Z,34.20
2019-05-20T20:09:49.423Z,34.30
2019-05-20T20:12:18.481Z,33.03
2019-05-20T20:14:47.167Z,33.17
2019-05-20T20:17:15.819Z,33.10
2019-05-20T20:19:44.408Z,31.90
2019-05-20T20:22:13.034Z,32.27
2019-05-20T20:24:41.771Z,33.03
2019-05-20T20:27:11.915Z,33.70
2019-05-20T20:29:40.491Z,35.97
2019-05-20T20:32:09.234Z,32.17
2019-05-20T20:34:37.855Z,30.57
2019-05-20T20:37:06.620Z,31.10
2019-05-20T20:39:35.267Z,27.03
2019-05-20T20:42:03.989Z,24.97
2019-05-20T20:44:32.567Z,24.10
2019-05-20T20:47:01.359Z,23.60
2019-05-20T20:49:30.167Z,23.60
2019-05-20T20:51:58.859Z,21.60
2019-05-20T20:54:27.694Z,20.20
2019-05-20T20:56:56.511Z,19.10
2019-05-20T20:59:25.272Z,19.20
2019-05-20T21:01:58.795Z,15.80
2019-05-20T21:04:24.890Z,16.77
2019-05-20T21:06:53.711Z,15.17
2019-05-20T21:09:22.271Z,15.57
2019-05-20T21:11:50.954Z,16.57
2019-05-20T21:14:19.520Z,16.07
2019-05-20T21:16:48.259Z,13.87
2019-05-20T21:19:16.867Z,16.37
2019-05-20T21:21:45.559Z,16.73
2019-05-20T21:24:14.324Z,16.17
2019-05-20T21:26:43.006Z,15.77
2019-05-20T21:29:11.925Z,19.20
2019-05-20T21:31:42.044Z,16.90
2019-05-20T21:34:10.816Z,18.80
2019-05-20T21:36:47.602Z,18.50
2019-05-20T21:39:10.048Z,21.00
2019-05-20T21:41:38.877Z,21.00
2019-05-20T21:44:07.868Z,20.30
2019-05-20T21:46:36.483Z,21.10
2019-05-20T21:49:05.229Z,20.00
2019-05-20T21:51:34.131Z,19.80
2019-05-20T21:54:02.946Z,18.67
2019-05-20T21:56:31.574Z,19.00
2019-05-20T21:59:00.682Z,17.73
2019-05-20T22:01:29.312Z,17.73
2019-05-20T22:03:57.837Z,18.13
2019-05-20T22:06:26.434Z,16.90
2019-05-20T22:08:55.235Z,16.60
2019-05-20T22:11:23.817Z,15.97
2019-05-20T22:13:52.441Z,15.67
2019-05-20T22:16:21.192Z,14.27
2019-05-20T22:18:49.813Z,15.33
2019-05-20T22:21:19.997Z,16.17
2019-05-20T22:23:50.320Z,15.97
2019-05-20T22:26:18.930Z,16.30
2019-05-20T22:28:49.668Z,17.63
2019-05-20T22:31:24.422Z,16.97
2019-05-20T22:33:55.619Z,18.13
2019-05-20T22:36:24.225Z,18.70
2019-05-20T22:38:52.901Z,18.73
2019-05-20T22:41:21.518Z,18.83
2019-05-20T22:43:50.209Z,19.93
2019-05-20T22:46:18.908Z,20.60
2019-05-20T22:48:47.466Z,19.57
2019-05-20T22:51:16.249Z,18.93
2019-05-20T22:53:44.978Z,19.87
2019-05-20T22:56:13.592Z,19.10
2019-05-20T22:58:42.194Z,19.10
2019-05-20T23:01:10.886Z,19.13
2019-05-20T23:03:39.746Z,17.97
2019-05-20T23:06:08.362Z,18.93
2019-05-20T23:08:37.133Z,18.63
2019-05-20T23:11:05.734Z,19.73
2019-05-20T23:13:34.316Z,19.10
2019-05-20T23:16:03.755Z,22.33
2019-05-20T23:18:32.387Z,21.93
2019-05-20T23:21:01.150Z,19.93
2019-05-20T23:23:29.850Z,20.57
2019-05-20T23:25:58.627Z,20.47
2019-05-20T23:28:27.210Z,20.70
2019-05-20T23:30:55.807Z,21.43
2019-05-20T23:33:24.358Z,20.10
2019-05-20T23:35:53.064Z,20.43
2019-05-20T23:38:21.755Z,21.73
2019-05-20T23:40:50.453Z,20.73
2019-05-20T23:43:19.081Z,20.43
2019-05-20T23:45:47.847Z,19.77
2019-05-20T23:48:16.553Z,20.70
2019-05-20T23:50:45.122Z,20.27
2019-05-20T23:53:13.747Z,20.03
2019-05-20T23:55:42.726Z,18.60
2019-05-20T23:58:11.528Z,18.20
